Accueil
METAR-TAF:

METAR-TAF

Aéroports :

Aéroport de Brive-Vallée de la Dordogne

Brive-la-Gaillarde, France

latitude: 45-02-28N, longitude: 001-28-59E, altitude: 311 m

Observation

Le bulletin a été fait il y a 29 minutes, à 08:00 UTC
Vent 9 kt de nord/nord-ouest
Température 6°C
Humidité 56%
Pression 1021 hPa
Visibilité 10 km ou plus
pas de nuages en-dessous de 1500 mètres et pas de cumulonimbus.

METAR: LFSL 170800Z AUTO 34009KT CAVOK 06/M02 Q1021 NOSIG

Heure: 10:29 (08:29 UTC)

Prévision

Le bulletin a été fait il y a 3 heures et 29 minutes, à 05:00 UTC
Prévision valable du 17 à 06 UTC au 17 à 15 UTC
Vent 9 kt de nord/nord-ouest
Visibilité 10 km ou plus
pas de nuages en-dessous de 1500 mètres et pas de cumulonimbus.

TAF: LFSL 170500Z 1706/1715 34009KT CAVOK

Observations et prévisions météorologiques de plus de 4000 aéroports (messages METAR et TAF).

Les stations disponibles sont représentées par des disques jaunes et rouges sur la carte.

Passer la souris dessus pour voir le nom de la station.

Cliquer dessus pour voir les observations et prévisions météorologiques.

Pour changer de carte: cliquez sur les boutons verts avec une croix noire pour zoomer, sur le bouton vert avec un tiret pour effectuer un zoom arrière, ou sur les flèches vertes pour les cartes adjacentes.


METAR-TAF: